sensor_id;sensor_type;location;lat;lon;timestamp;P1;durP1;ratioP1;P2;durP2;ratioP2
16994;SDS011;8614;48.522;9.206;2023-09-19T00:00:30;9.77;;;9.17;;
16994;SDS011;8614;48.522;9.206;2023-09-19T00:02:59;10.50;;;9.80;;
16994;SDS011;8614;48.522;9.206;2023-09-19T00:05:27;10.23;;;9.63;;
16994;SDS011;8614;48.522;9.206;2023-09-19T00:07:55;10.47;;;9.87;;
16994;SDS011;8614;48.522;9.206;2023-09-19T00:10:24;10.37;;;9.77;;
16994;SDS011;8614;48.522;9.206;2023-09-19T00:12:52;10.30;;;9.70;;
16994;SDS011;8614;48.522;9.206;2023-09-19T00:15:20;10.20;;;9.67;;
16994;SDS011;8614;48.522;9.206;2023-09-19T00:17:47;10.30;;;9.70;;
16994;SDS011;8614;48.522;9.206;2023-09-19T00:20:14;10.03;;;9.53;;
16994;SDS011;8614;48.522;9.206;2023-09-19T00:22:44;10.67;;;10.00;;
16994;SDS011;8614;48.522;9.206;2023-09-19T00:25:11;10.27;;;9.67;;
16994;SDS011;8614;48.522;9.206;2023-09-19T00:27:40;10.00;;;9.40;;
16994;SDS011;8614;48.522;9.206;2023-09-19T00:30:08;9.70;;;9.10;;
16994;SDS011;8614;48.522;9.206;2023-09-19T00:32:40;9.73;;;9.13;;
16994;SDS011;8614;48.522;9.206;2023-09-19T00:35:07;9.53;;;9.03;;
16994;SDS011;8614;48.522;9.206;2023-09-19T00:37:35;9.80;;;9.20;;
16994;SDS011;8614;48.522;9.206;2023-09-19T00:40:04;10.17;;;9.57;;
16994;SDS011;8614;48.522;9.206;2023-09-19T00:42:34;10.30;;;9.60;;
16994;SDS011;8614;48.522;9.206;2023-09-19T00:45:03;10.60;;;9.80;;
16994;SDS011;8614;48.522;9.206;2023-09-19T00:47:30;10.20;;;9.60;;
16994;SDS011;8614;48.522;9.206;2023-09-19T00:49:57;10.00;;;9.40;;
16994;SDS011;8614;48.522;9.206;2023-09-19T00:52:24;10.20;;;9.60;;
16994;SDS011;8614;48.522;9.206;2023-09-19T00:54:51;10.40;;;9.70;;
16994;SDS011;8614;48.522;9.206;2023-09-19T00:57:20;11.03;;;10.37;;
16994;SDS011;8614;48.522;9.206;2023-09-19T00:59:48;10.00;;;9.40;;
16994;SDS011;8614;48.522;9.206;2023-09-19T01:02:20;10.83;;;10.03;;
16994;SDS011;8614;48.522;9.206;2023-09-19T01:04:47;10.67;;;10.07;;
16994;SDS011;8614;48.522;9.206;2023-09-19T01:07:14;10.37;;;9.77;;
16994;SDS011;8614;48.522;9.206;2023-09-19T01:09:41;10.37;;;9.77;;
16994;SDS011;8614;48.522;9.206;2023-09-19T01:12:08;10.33;;;9.60;;
16994;SDS011;8614;48.522;9.206;2023-09-19T01:14:43;10.50;;;9.70;;
16994;SDS011;8614;48.522;9.206;2023-09-19T01:17:20;10.47;;;9.87;;
16994;SDS011;8614;48.522;9.206;2023-09-19T01:20:02;10.50;;;9.90;;
16994;SDS011;8614;48.522;9.206;2023-09-19T01:22:42;10.90;;;10.10;;
16994;SDS011;8614;48.522;9.206;2023-09-19T01:28:31;11.00;;;10.30;;
16994;SDS011;8614;48.522;9.206;2023-09-19T01:31:06;10.87;;;10.17;;
16994;SDS011;8614;48.522;9.206;2023-09-19T01:36:24;10.90;;;10.30;;
16994;SDS011;8614;48.522;9.206;2023-09-19T01:38:52;11.00;;;10.30;;
16994;SDS011;8614;48.522;9.206;2023-09-19T01:41:21;11.00;;;10.20;;
16994;SDS011;8614;48.522;9.206;2023-09-19T01:43:53;10.83;;;10.23;;
16994;SDS011;8614;48.522;9.206;2023-09-19T01:46:24;11.10;;;10.50;;
16994;SDS011;8614;48.522;9.206;2023-09-19T01:48:57;11.30;;;10.60;;
16994;SDS011;8614;48.522;9.206;2023-09-19T01:51:32;10.70;;;10.07;;
16994;SDS011;8614;48.522;9.206;2023-09-19T01:54:04;11.70;;;10.90;;
16994;SDS011;8614;48.522;9.206;2023-09-19T01:56:37;11.10;;;10.40;;
16994;SDS011;8614;48.522;9.206;2023-09-19T01:59:10;10.73;;;10.13;;
16994;SDS011;8614;48.522;9.206;2023-09-19T02:01:41;11.30;;;10.70;;
16994;SDS011;8614;48.522;9.206;2023-09-19T02:04:10;10.47;;;9.87;;
16994;SDS011;8614;48.522;9.206;2023-09-19T02:06:39;10.73;;;10.03;;
16994;SDS011;8614;48.522;9.206;2023-09-19T02:09:07;10.67;;;10.00;;
16994;SDS011;8614;48.522;9.206;2023-09-19T02:11:34;10.50;;;9.90;;
16994;SDS011;8614;48.522;9.206;2023-09-19T02:14:02;11.60;;;10.90;;
16994;SDS011;8614;48.522;9.206;2023-09-19T02:16:29;11.20;;;10.50;;
16994;SDS011;8614;48.522;9.206;2023-09-19T02:18:58;11.23;;;10.53;;
16994;SDS011;8614;48.522;9.206;2023-09-19T02:21:26;11.50;;;10.73;;
16994;SDS011;8614;48.522;9.206;2023-09-19T02:23:54;10.70;;;10.10;;
16994;SDS011;8614;48.522;9.206;2023-09-19T02:26:21;10.83;;;10.07;;
16994;SDS011;8614;48.522;9.206;2023-09-19T02:28:49;10.90;;;10.20;;
16994;SDS011;8614;48.522;9.206;2023-09-19T02:31:18;12.27;;;11.47;;
16994;SDS011;8614;48.522;9.206;2023-09-19T02:33:45;10.87;;;10.17;;
16994;SDS011;8614;48.522;9.206;2023-09-19T02:36:13;11.03;;;10.33;;
16994;SDS011;8614;48.522;9.206;2023-09-19T02:38:42;10.87;;;10.17;;
16994;SDS011;8614;48.522;9.206;2023-09-19T02:41:09;11.87;;;10.97;;
16994;SDS011;8614;48.522;9.206;2023-09-19T02:43:37;10.60;;;9.97;;
16994;SDS011;8614;48.522;9.206;2023-09-19T02:46:04;11.13;;;10.27;;
16994;SDS011;8614;48.522;9.206;2023-09-19T02:48:31;10.90;;;10.20;;
16994;SDS011;8614;48.522;9.206;2023-09-19T02:50:59;10.80;;;10.20;;
16994;SDS011;8614;48.522;9.206;2023-09-19T02:53:28;10.80;;;10.10;;
16994;SDS011;8614;48.522;9.206;2023-09-19T02:55:56;11.00;;;10.40;;
16994;SDS011;8614;48.522;9.206;2023-09-19T02:58:24;11.10;;;10.50;;
16994;SDS011;8614;48.522;9.206;2023-09-19T03:00:53;11.97;;;11.37;;
16994;SDS011;8614;48.522;9.206;2023-09-19T03:03:20;11.37;;;10.67;;
16994;SDS011;8614;48.522;9.206;2023-09-19T03:05:48;11.10;;;10.40;;
16994;SDS011;8614;48.522;9.206;2023-09-19T03:08:17;11.10;;;10.50;;
16994;SDS011;8614;48.522;9.206;2023-09-19T03:10:47;10.90;;;10.20;;
16994;SDS011;8614;48.522;9.206;2023-09-19T03:13:15;10.67;;;10.07;;
16994;SDS011;8614;48.522;9.206;2023-09-19T03:15:42;10.80;;;10.20;;
16994;SDS011;8614;48.522;9.206;2023-09-19T03:18:12;10.77;;;10.17;;
16994;SDS011;8614;48.522;9.206;2023-09-19T03:20:39;11.70;;;11.00;;
16994;SDS011;8614;48.522;9.206;2023-09-19T03:23:06;11.63;;;11.03;;
16994;SDS011;8614;48.522;9.206;2023-09-19T03:25:34;11.47;;;10.87;;
16994;SDS011;8614;48.522;9.206;2023-09-19T03:28:03;11.60;;;10.90;;
16994;SDS011;8614;48.522;9.206;2023-09-19T03:30:31;12.37;;;11.57;;
16994;SDS011;8614;48.522;9.206;2023-09-19T03:33:02;10.97;;;10.37;;
16994;SDS011;8614;48.522;9.206;2023-09-19T03:35:30;11.63;;;10.93;;
16994;SDS011;8614;48.522;9.206;2023-09-19T03:37:57;11.40;;;10.80;;
16994;SDS011;8614;48.522;9.206;2023-09-19T03:40:24;11.40;;;10.70;;
16994;SDS011;8614;48.522;9.206;2023-09-19T03:42:51;11.67;;;11.00;;
16994;SDS011;8614;48.522;9.206;2023-09-19T03:45:20;11.97;;;11.37;;
16994;SDS011;8614;48.522;9.206;2023-09-19T03:47:50;11.30;;;10.70;;
16994;SDS011;8614;48.522;9.206;2023-09-19T03:50:19;12.40;;;11.70;;
16994;SDS011;8614;48.522;9.206;2023-09-19T03:52:46;12.00;;;11.30;;
16994;SDS011;8614;48.522;9.206;2023-09-19T03:55:13;11.90;;;11.27;;
16994;SDS011;8614;48.522;9.206;2023-09-19T03:57:40;11.90;;;11.20;;
16994;SDS011;8614;48.522;9.206;2023-09-19T04:00:08;11.50;;;10.80;;
16994;SDS011;8614;48.522;9.206;2023-09-19T04:02:41;11.20;;;10.57;;
16994;SDS011;8614;48.522;9.206;2023-09-19T04:05:09;10.97;;;10.30;;
16994;SDS011;8614;48.522;9.206;2023-09-19T04:07:36;10.70;;;10.10;;
16994;SDS011;8614;48.522;9.206;2023-09-19T04:10:03;10.50;;;9.90;;
16994;SDS011;8614;48.522;9.206;2023-09-19T04:12:31;12.03;;;11.33;;
16994;SDS011;8614;48.522;9.206;2023-09-19T04:14:58;11.70;;;11.00;;
16994;SDS011;8614;48.522;9.206;2023-09-19T04:17:25;11.83;;;11.03;;
16994;SDS011;8614;48.522;9.206;2023-09-19T04:19:53;11.60;;;11.00;;
16994;SDS011;8614;48.522;9.206;2023-09-19T04:22:20;11.30;;;10.70;;
16994;SDS011;8614;48.522;9.206;2023-09-19T04:24:47;11.47;;;10.87;;
16994;SDS011;8614;48.522;9.206;2023-09-19T04:27:13;11.90;;;11.20;;
16994;SDS011;8614;48.522;9.206;2023-09-19T04:29:40;11.70;;;11.10;;
16994;SDS011;8614;48.522;9.206;2023-09-19T04:32:07;11.90;;;11.20;;
16994;SDS011;8614;48.522;9.206;2023-09-19T04:34:34;11.93;;;11.33;;
16994;SDS011;8614;48.522;9.206;2023-09-19T04:37:03;12.43;;;11.73;;
16994;SDS011;8614;48.522;9.206;2023-09-19T04:39:30;12.20;;;11.50;;
16994;SDS011;8614;48.522;9.206;2023-09-19T04:41:56;12.70;;;11.90;;
16994;SDS011;8614;48.522;9.206;2023-09-19T04:44:24;12.50;;;11.80;;
16994;SDS011;8614;48.522;9.206;2023-09-19T04:46:51;12.30;;;11.50;;
16994;SDS011;8614;48.522;9.206;2023-09-19T04:49:18;13.47;;;12.67;;
16994;SDS011;8614;48.522;9.206;2023-09-19T04:51:45;13.27;;;12.50;;
16994;SDS011;8614;48.522;9.206;2023-09-19T04:54:13;12.57;;;11.87;;
16994;SDS011;8614;48.522;9.206;2023-09-19T04:56:41;13.03;;;12.33;;
16994;SDS011;8614;48.522;9.206;2023-09-19T04:59:07;13.60;;;12.80;;
16994;SDS011;8614;48.522;9.206;2023-09-19T05:01:35;13.43;;;12.63;;
16994;SDS011;8614;48.522;9.206;2023-09-19T05:04:02;13.67;;;12.87;;
16994;SDS011;8614;48.522;9.206;2023-09-19T05:06:30;13.77;;;12.90;;
16994;SDS011;8614;48.522;9.206;2023-09-19T05:08:56;13.30;;;12.50;;
16994;SDS011;8614;48.522;9.206;2023-09-19T05:11:25;13.30;;;12.60;;
16994;SDS011;8614;48.522;9.206;2023-09-19T05:13:52;13.50;;;12.70;;
16994;SDS011;8614;48.522;9.206;2023-09-19T05:16:19;13.60;;;12.80;;
16994;SDS011;8614;48.522;9.206;2023-09-19T05:18:46;13.30;;;12.50;;
16994;SDS011;8614;48.522;9.206;2023-09-19T05:21:12;13.10;;;12.30;;
16994;SDS011;8614;48.522;9.206;2023-09-19T05:23:39;12.50;;;11.80;;
16994;SDS011;8614;48.522;9.206;2023-09-19T05:26:07;13.10;;;12.40;;
16994;SDS011;8614;48.522;9.206;2023-09-19T05:28:37;12.07;;;11.47;;
16994;SDS011;8614;48.522;9.206;2023-09-19T05:31:03;12.00;;;11.40;;
16994;SDS011;8614;48.522;9.206;2023-09-19T05:33:30;12.47;;;11.77;;
16994;SDS011;8614;48.522;9.206;2023-09-19T05:35:58;12.27;;;11.57;;
16994;SDS011;8614;48.522;9.206;2023-09-19T05:38:25;12.20;;;11.60;;
16994;SDS011;8614;48.522;9.206;2023-09-19T05:40:52;11.97;;;11.37;;
16994;SDS011;8614;48.522;9.206;2023-09-19T05:43:19;11.90;;;11.30;;
16994;SDS011;8614;48.522;9.206;2023-09-19T05:45:47;11.83;;;11.23;;
16994;SDS011;8614;48.522;9.206;2023-09-19T05:48:17;12.10;;;11.40;;
16994;SDS011;8614;48.522;9.206;2023-09-19T05:50:46;11.93;;;11.33;;
16994;SDS011;8614;48.522;9.206;2023-09-19T05:53:14;12.07;;;11.37;;
16994;SDS011;8614;48.522;9.206;2023-09-19T05:55:41;12.00;;;11.40;;
16994;SDS011;8614;48.522;9.206;2023-09-19T05:58:08;11.77;;;11.00;;
16994;SDS011;8614;48.522;9.206;2023-09-19T06:00:35;11.57;;;10.97;;
16994;SDS011;8614;48.522;9.206;2023-09-19T06:03:03;11.60;;;10.93;;
16994;SDS011;8614;48.522;9.206;2023-09-19T06:05:30;11.97;;;11.27;;
16994;SDS011;8614;48.522;9.206;2023-09-19T06:07:57;12.17;;;11.47;;
16994;SDS011;8614;48.522;9.206;2023-09-19T06:10:25;12.17;;;11.47;;
16994;SDS011;8614;48.522;9.206;2023-09-19T06:12:53;12.50;;;11.80;;
16994;SDS011;8614;48.522;9.206;2023-09-19T06:15:21;12.10;;;11.40;;
16994;SDS011;8614;48.522;9.206;2023-09-19T06:17:50;11.60;;;11.00;;
16994;SDS011;8614;48.522;9.206;2023-09-19T06:20:21;12.07;;;11.37;;
16994;SDS011;8614;48.522;9.206;2023-09-19T06:22:49;11.73;;;11.00;;
16994;SDS011;8614;48.522;9.206;2023-09-19T06:25:16;11.50;;;10.90;;
16994;SDS011;8614;48.522;9.206;2023-09-19T06:27:45;11.77;;;11.07;;
16994;SDS011;8614;48.522;9.206;2023-09-19T06:30:12;11.90;;;11.20;;
16994;SDS011;8614;48.522;9.206;2023-09-19T06:32:39;11.37;;;10.57;;
16994;SDS011;8614;48.522;9.206;2023-09-19T06:35:09;11.70;;;11.00;;
16994;SDS011;8614;48.522;9.206;2023-09-19T06:37:38;11.90;;;11.30;;
16994;SDS011;8614;48.522;9.206;2023-09-19T06:40:06;12.20;;;11.50;;
16994;SDS011;8614;48.522;9.206;2023-09-19T06:42:35;11.90;;;11.20;;
16994;SDS011;8614;48.522;9.206;2023-09-19T06:45:03;11.40;;;10.80;;
16994;SDS011;8614;48.522;9.206;2023-09-19T06:47:31;11.47;;;10.67;;
16994;SDS011;8614;48.522;9.206;2023-09-19T06:49:58;11.57;;;10.97;;
16994;SDS011;8614;48.522;9.206;2023-09-19T06:52:27;11.27;;;10.57;;
16994;SDS011;8614;48.522;9.206;2023-09-19T06:54:55;11.13;;;10.43;;
16994;SDS011;8614;48.522;9.206;2023-09-19T06:57:22;11.57;;;10.83;;
16994;SDS011;8614;48.522;9.206;2023-09-19T06:59:49;11.03;;;10.43;;
16994;SDS011;8614;48.522;9.206;2023-09-19T07:02:16;8.30;;;7.80;;
16994;SDS011;8614;48.522;9.206;2023-09-19T07:04:43;10.57;;;9.87;;
16994;SDS011;8614;48.522;9.206;2023-09-19T07:07:10;7.70;;;7.27;;
16994;SDS011;8614;48.522;9.206;2023-09-19T07:09:37;3.80;;;3.47;;
16994;SDS011;8614;48.522;9.206;2023-09-19T07:12:06;5.77;;;5.37;;
16994;SDS011;8614;48.522;9.206;2023-09-19T07:14:33;10.37;;;9.77;;
16994;SDS011;8614;48.522;9.206;2023-09-19T07:17:00;9.60;;;9.00;;
16994;SDS011;8614;48.522;9.206;2023-09-19T07:19:28;7.33;;;6.83;;
16994;SDS011;8614;48.522;9.206;2023-09-19T07:21:56;9.37;;;8.67;;
16994;SDS011;8614;48.522;9.206;2023-09-19T07:24:24;9.10;;;8.50;;
16994;SDS011;8614;48.522;9.206;2023-09-19T07:26:53;7.53;;;7.03;;
16994;SDS011;8614;48.522;9.206;2023-09-19T07:29:22;9.83;;;9.13;;
16994;SDS011;8614;48.522;9.206;2023-09-19T07:31:48;10.33;;;9.73;;
16994;SDS011;8614;48.522;9.206;2023-09-19T07:34:15;9.20;;;8.60;;
16994;SDS011;8614;48.522;9.206;2023-09-19T07:36:43;8.63;;;8.03;;
16994;SDS011;8614;48.522;9.206;2023-09-19T07:39:10;6.03;;;5.53;;
16994;SDS011;8614;48.522;9.206;2023-09-19T07:41:36;9.23;;;8.73;;
16994;SDS011;8614;48.522;9.206;2023-09-19T07:44:03;6.70;;;6.30;;
16994;SDS011;8614;48.522;9.206;2023-09-19T07:46:32;10.23;;;9.40;;
16994;SDS011;8614;48.522;9.206;2023-09-19T07:48:59;3.73;;;3.43;;
16994;SDS011;8614;48.522;9.206;2023-09-19T07:51:25;8.10;;;7.60;;
16994;SDS011;8614;48.522;9.206;2023-09-19T07:53:52;7.33;;;6.93;;
16994;SDS011;8614;48.522;9.206;2023-09-19T07:56:20;9.70;;;9.00;;
16994;SDS011;8614;48.522;9.206;2023-09-19T07:58:48;9.50;;;9.00;;
16994;SDS011;8614;48.522;9.206;2023-09-19T08:01:15;3.10;;;2.90;;
16994;SDS011;8614;48.522;9.206;2023-09-19T08:03:43;4.77;;;4.23;;
16994;SDS011;8614;48.522;9.206;2023-09-19T08:06:10;3.00;;;2.50;;
16994;SDS011;8614;48.522;9.206;2023-09-19T08:08:39;2.30;;;2.20;;
16994;SDS011;8614;48.522;9.206;2023-09-19T08:11:06;2.67;;;2.57;;
16994;SDS011;8614;48.522;9.206;2023-09-19T08:13:36;7.50;;;7.10;;
16994;SDS011;8614;48.522;9.206;2023-09-19T08:16:06;7.60;;;7.10;;
16994;SDS011;8614;48.522;9.206;2023-09-19T08:18:33;6.87;;;6.37;;
16994;SDS011;8614;48.522;9.206;2023-09-19T08:21:01;6.50;;;6.10;;
16994;SDS011;8614;48.522;9.206;2023-09-19T08:23:28;4.00;;;3.80;;
16994;SDS011;8614;48.522;9.206;2023-09-19T08:28:58;2.43;;;2.30;;
16994;SDS011;8614;48.522;9.206;2023-09-19T08:34:18;2.43;;;2.27;;
16994;SDS011;8614;48.522;9.206;2023-09-19T08:36:47;2.50;;;2.30;;
16994;SDS011;8614;48.522;9.206;2023-09-19T08:39:17;2.90;;;2.30;;
16994;SDS011;8614;48.522;9.206;2023-09-19T08:41:45;2.37;;;2.23;;
16994;SDS011;8614;48.522;9.206;2023-09-19T08:44:12;2.97;;;2.70;;
16994;SDS011;8614;48.522;9.206;2023-09-19T08:46:40;3.17;;;2.97;;
16994;SDS011;8614;48.522;9.206;2023-09-19T08:49:08;3.37;;;3.13;;
16994;SDS011;8614;48.522;9.206;2023-09-19T08:51:48;4.73;;;4.33;;
16994;SDS011;8614;48.522;9.206;2023-09-19T08:54:24;4.10;;;3.90;;
16994;SDS011;8614;48.522;9.206;2023-09-19T08:56:54;4.90;;;4.50;;
16994;SDS011;8614;48.522;9.206;2023-09-19T08:59:24;5.60;;;5.20;;
16994;SDS011;8614;48.522;9.206;2023-09-19T09:01:53;3.07;;;2.87;;
16994;SDS011;8614;48.522;9.206;2023-09-19T09:04:22;2.30;;;2.20;;
16994;SDS011;8614;48.522;9.206;2023-09-19T09:06:52;4.10;;;3.80;;
16994;SDS011;8614;48.522;9.206;2023-09-19T09:09:20;2.43;;;2.23;;
16994;SDS011;8614;48.522;9.206;2023-09-19T09:11:48;7.00;;;6.40;;
16994;SDS011;8614;48.522;9.206;2023-09-19T09:14:18;6.60;;;6.20;;
16994;SDS011;8614;48.522;9.206;2023-09-19T09:16:46;9.53;;;8.83;;
16994;SDS011;8614;48.522;9.206;2023-09-19T09:19:14;2.40;;;2.20;;
16994;SDS011;8614;48.522;9.206;2023-09-19T09:21:49;8.00;;;7.50;;
16994;SDS011;8614;48.522;9.206;2023-09-19T09:24:27;9.23;;;8.53;;
16994;SDS011;8614;48.522;9.206;2023-09-19T09:26:55;7.93;;;7.33;;
16994;SDS011;8614;48.522;9.206;2023-09-19T09:32:18;9.40;;;8.80;;
16994;SDS011;8614;48.522;9.206;2023-09-19T09:34:47;8.40;;;7.80;;
16994;SDS011;8614;48.522;9.206;2023-09-19T09:37:16;9.17;;;8.57;;
16994;SDS011;8614;48.522;9.206;2023-09-19T09:39:52;8.20;;;7.70;;
16994;SDS011;8614;48.522;9.206;2023-09-19T09:42:31;8.77;;;8.10;;
16994;SDS011;8614;48.522;9.206;2023-09-19T09:45:16;8.53;;;7.90;;
16994;SDS011;8614;48.522;9.206;2023-09-19T09:47:53;8.53;;;7.93;;
16994;SDS011;8614;48.522;9.206;2023-09-19T09:50:24;7.80;;;7.30;;
16994;SDS011;8614;48.522;9.206;2023-09-19T09:52:55;6.73;;;6.33;;
16994;SDS011;8614;48.522;9.206;2023-09-19T09:55:34;8.23;;;7.60;;
16994;SDS011;8614;48.522;9.206;2023-09-19T09:58:24;8.27;;;7.77;;
16994;SDS011;8614;48.522;9.206;2023-09-19T10:00:54;8.33;;;7.73;;
16994;SDS011;8614;48.522;9.206;2023-09-19T10:03:33;2.30;;;2.10;;
16994;SDS011;8614;48.522;9.206;2023-09-19T10:06:05;3.53;;;3.27;;
16994;SDS011;8614;48.522;9.206;2023-09-19T10:09:02;2.83;;;2.23;;
16994;SDS011;8614;48.522;9.206;2023-09-19T10:11:47;7.03;;;6.63;;
16994;SDS011;8614;48.522;9.206;2023-09-19T10:14:19;6.97;;;6.57;;
16994;SDS011;8614;48.522;9.206;2023-09-19T10:16:51;5.67;;;5.30;;
16994;SDS011;8614;48.522;9.206;2023-09-19T10:19:27;6.00;;;5.50;;
16994;SDS011;8614;48.522;9.206;2023-09-19T10:21:58;6.70;;;6.10;;
16994;SDS011;8614;48.522;9.206;2023-09-19T10:24:27;6.20;;;5.70;;
16994;SDS011;8614;48.522;9.206;2023-09-19T10:26:59;5.63;;;5.23;;
16994;SDS011;8614;48.522;9.206;2023-09-19T10:29:28;7.80;;;7.27;;
16994;SDS011;8614;48.522;9.206;2023-09-19T10:32:01;7.77;;;7.27;;
16994;SDS011;8614;48.522;9.206;2023-09-19T10:34:31;8.10;;;7.60;;
16994;SDS011;8614;48.522;9.206;2023-09-19T10:37:02;8.00;;;7.50;;
16994;SDS011;8614;48.522;9.206;2023-09-19T10:39:31;8.87;;;8.27;;
16994;SDS011;8614;48.522;9.206;2023-09-19T10:42:01;7.77;;;7.37;;
16994;SDS011;8614;48.522;9.206;2023-09-19T10:44:31;8.07;;;7.57;;
16994;SDS011;8614;48.522;9.206;2023-09-19T10:46:59;8.07;;;7.50;;
16994;SDS011;8614;48.522;9.206;2023-09-19T10:49:26;8.07;;;7.57;;
16994;SDS011;8614;48.522;9.206;2023-09-19T10:51:54;8.00;;;7.50;;
16994;SDS011;8614;48.522;9.206;2023-09-19T10:54:26;7.60;;;7.10;;
16994;SDS011;8614;48.522;9.206;2023-09-19T10:56:57;8.80;;;8.00;;
16994;SDS011;8614;48.522;9.206;2023-09-19T10:59:30;9.03;;;8.30;;
16994;SDS011;8614;48.522;9.206;2023-09-19T11:02:00;7.67;;;7.17;;
16994;SDS011;8614;48.522;9.206;2023-09-19T11:04:42;7.67;;;7.17;;
16994;SDS011;8614;48.522;9.206;2023-09-19T11:07:13;7.20;;;6.80;;
16994;SDS011;8614;48.522;9.206;2023-09-19T11:09:44;7.17;;;6.57;;
16994;SDS011;8614;48.522;9.206;2023-09-19T11:12:13;7.40;;;7.00;;
16994;SDS011;8614;48.522;9.206;2023-09-19T11:24:29;7.70;;;7.30;;
16994;SDS011;8614;48.522;9.206;2023-09-19T11:27:09;8.00;;;7.33;;
16994;SDS011;8614;48.522;9.206;2023-09-19T11:29:40;8.03;;;7.53;;
16994;SDS011;8614;48.522;9.206;2023-09-19T11:32:07;7.97;;;7.37;;
16994;SDS011;8614;48.522;9.206;2023-09-19T11:34:41;7.97;;;7.47;;
16994;SDS011;8614;48.522;9.206;2023-09-19T11:40:44;7.43;;;6.93;;
16994;SDS011;8614;48.522;9.206;2023-09-19T11:43:32;8.20;;;7.60;;
16994;SDS011;8614;48.522;9.206;2023-09-19T11:46:03;7.83;;;7.30;;
16994;SDS011;8614;48.522;9.206;2023-09-19T11:48:33;7.20;;;6.57;;
16994;SDS011;8614;48.522;9.206;2023-09-19T11:51:09;3.20;;;2.90;;
16994;SDS011;8614;48.522;9.206;2023-09-19T11:53:44;3.53;;;3.30;;
16994;SDS011;8614;48.522;9.206;2023-09-19T11:56:13;3.63;;;3.20;;
16994;SDS011;8614;48.522;9.206;2023-09-19T11:58:42;4.27;;;3.87;;
16994;SDS011;8614;48.522;9.206;2023-09-19T12:01:13;3.40;;;3.20;;
16994;SDS011;8614;48.522;9.206;2023-09-19T12:03:46;3.73;;;3.43;;
16994;SDS011;8614;48.522;9.206;2023-09-19T12:06:15;3.40;;;3.20;;
16994;SDS011;8614;48.522;9.206;2023-09-19T12:08:43;3.57;;;3.13;;
16994;SDS011;8614;48.522;9.206;2023-09-19T12:11:12;3.07;;;2.87;;
16994;SDS011;8614;48.522;9.206;2023-09-19T12:13:45;2.77;;;2.60;;
16994;SDS011;8614;48.522;9.206;2023-09-19T12:16:16;3.13;;;2.93;;
16994;SDS011;8614;48.522;9.206;2023-09-19T12:18:47;6.70;;;6.30;;
16994;SDS011;8614;48.522;9.206;2023-09-19T12:21:25;3.73;;;2.10;;
16994;SDS011;8614;48.522;9.206;2023-09-19T12:24:03;2.20;;;2.10;;
16994;SDS011;8614;48.522;9.206;2023-09-19T12:26:37;4.00;;;3.70;;
16994;SDS011;8614;48.522;9.206;2023-09-19T12:29:10;2.37;;;2.10;;
16994;SDS011;8614;48.522;9.206;2023-09-19T12:31:49;2.33;;;2.20;;
16994;SDS011;8614;48.522;9.206;2023-09-19T12:34:19;2.93;;;2.50;;
16994;SDS011;8614;48.522;9.206;2023-09-19T12:36:47;2.23;;;2.13;;
16994;SDS011;8614;48.522;9.206;2023-09-19T12:39:24;3.73;;;2.40;;
16994;SDS011;8614;48.522;9.206;2023-09-19T12:41:52;2.50;;;2.20;;
16994;SDS011;8614;48.522;9.206;2023-09-19T12:44:19;2.30;;;2.10;;
16994;SDS011;8614;48.522;9.206;2023-09-19T12:46:51;2.50;;;2.30;;
16994;SDS011;8614;48.522;9.206;2023-09-19T12:49:20;2.33;;;2.13;;
16994;SDS011;8614;48.522;9.206;2023-09-19T12:51:48;2.50;;;2.30;;
16994;SDS011;8614;48.522;9.206;2023-09-19T12:54:15;3.17;;;2.07;;
16994;SDS011;8614;48.522;9.206;2023-09-19T12:56:42;2.50;;;2.20;;
16994;SDS011;8614;48.522;9.206;2023-09-19T12:59:11;2.30;;;2.20;;
16994;SDS011;8614;48.522;9.206;2023-09-19T13:01:39;4.37;;;4.07;;
16994;SDS011;8614;48.522;9.206;2023-09-19T13:04:15;4.50;;;4.20;;
16994;SDS011;8614;48.522;9.206;2023-09-19T13:06:51;2.30;;;2.20;;
16994;SDS011;8614;48.522;9.206;2023-09-19T13:09:20;2.77;;;2.43;;
16994;SDS011;8614;48.522;9.206;2023-09-19T13:11:50;2.50;;;2.30;;
16994;SDS011;8614;48.522;9.206;2023-09-19T13:14:19;2.53;;;2.33;;
16994;SDS011;8614;48.522;9.206;2023-09-19T13:16:58;2.97;;;2.10;;
16994;SDS011;8614;48.522;9.206;2023-09-19T13:19:37;2.60;;;2.40;;
16994;SDS011;8614;48.522;9.206;2023-09-19T13:25:04;2.30;;;2.10;;
16994;SDS011;8614;48.522;9.206;2023-09-19T13:27:31;2.40;;;2.20;;
16994;SDS011;8614;48.522;9.206;2023-09-19T13:29:58;2.60;;;2.40;;
16994;SDS011;8614;48.522;9.206;2023-09-19T13:32:25;2.50;;;2.30;;
16994;SDS011;8614;48.522;9.206;2023-09-19T13:34:54;3.13;;;2.20;;
16994;SDS011;8614;48.522;9.206;2023-09-19T13:37:20;2.50;;;2.30;;
16994;SDS011;8614;48.522;9.206;2023-09-19T13:39:47;2.43;;;2.23;;
16994;SDS011;8614;48.522;9.206;2023-09-19T13:42:14;3.53;;;2.40;;
16994;SDS011;8614;48.522;9.206;2023-09-19T13:44:41;2.23;;;2.13;;
16994;SDS011;8614;48.522;9.206;2023-09-19T13:47:08;2.40;;;2.20;;
16994;SDS011;8614;48.522;9.206;2023-09-19T13:49:38;3.53;;;2.33;;
16994;SDS011;8614;48.522;9.206;2023-09-19T13:52:06;2.43;;;2.23;;
16994;SDS011;8614;48.522;9.206;2023-09-19T13:54:33;3.73;;;3.20;;
16994;SDS011;8614;48.522;9.206;2023-09-19T13:57:00;4.47;;;3.47;;
16994;SDS011;8614;48.522;9.206;2023-09-19T13:59:26;7.77;;;5.40;;
16994;SDS011;8614;48.522;9.206;2023-09-19T14:01:54;6.33;;;5.20;;
16994;SDS011;8614;48.522;9.206;2023-09-19T14:04:22;4.90;;;3.93;;
16994;SDS011;8614;48.522;9.206;2023-09-19T14:06:49;5.20;;;4.33;;
16994;SDS011;8614;48.522;9.206;2023-09-19T14:09:17;8.57;;;6.47;;
16994;SDS011;8614;48.522;9.206;2023-09-19T14:11:44;10.27;;;8.30;;
16994;SDS011;8614;48.522;9.206;2023-09-19T14:14:12;10.67;;;8.03;;
16994;SDS011;8614;48.522;9.206;2023-09-19T14:16:40;8.87;;;6.27;;
16994;SDS011;8614;48.522;9.206;2023-09-19T14:19:07;7.00;;;4.87;;
16994;SDS011;8614;48.522;9.206;2023-09-19T14:21:34;6.43;;;4.60;;
16994;SDS011;8614;48.522;9.206;2023-09-19T14:24:01;7.30;;;5.63;;
16994;SDS011;8614;48.522;9.206;2023-09-19T14:26:30;6.40;;;4.90;;
16994;SDS011;8614;48.522;9.206;2023-09-19T14:28:56;6.03;;;4.20;;
16994;SDS011;8614;48.522;9.206;2023-09-19T14:31:23;5.53;;;3.97;;
16994;SDS011;8614;48.522;9.206;2023-09-19T14:33:53;4.93;;;3.40;;
16994;SDS011;8614;48.522;9.206;2023-09-19T14:36:21;3.73;;;3.10;;
16994;SDS011;8614;48.522;9.206;2023-09-19T14:38:51;5.23;;;3.90;;
16994;SDS011;8614;48.522;9.206;2023-09-19T14:41:19;3.93;;;3.23;;
16994;SDS011;8614;48.522;9.206;2023-09-19T14:43:49;3.43;;;2.90;;
16994;SDS011;8614;48.522;9.206;2023-09-19T14:46:16;3.43;;;2.77;;
16994;SDS011;8614;48.522;9.206;2023-09-19T14:48:44;3.00;;;2.70;;
16994;SDS011;8614;48.522;9.206;2023-09-19T14:51:12;4.10;;;2.90;;
16994;SDS011;8614;48.522;9.206;2023-09-19T14:53:39;2.80;;;2.60;;
16994;SDS011;8614;48.522;9.206;2023-09-19T14:56:07;3.20;;;2.70;;
16994;SDS011;8614;48.522;9.206;2023-09-19T14:58:35;3.47;;;2.70;;
16994;SDS011;8614;48.522;9.206;2023-09-19T15:01:06;2.67;;;2.47;;
16994;SDS011;8614;48.522;9.206;2023-09-19T15:03:35;2.53;;;2.30;;
16994;SDS011;8614;48.522;9.206;2023-09-19T15:06:04;2.30;;;2.17;;
16994;SDS011;8614;48.522;9.206;2023-09-19T15:08:32;3.33;;;2.57;;
16994;SDS011;8614;48.522;9.206;2023-09-19T15:11:03;2.90;;;2.60;;
16994;SDS011;8614;48.522;9.206;2023-09-19T15:13:30;4.43;;;4.03;;
16994;SDS011;8614;48.522;9.206;2023-09-19T15:16:00;6.07;;;5.57;;
16994;SDS011;8614;48.522;9.206;2023-09-19T15:18:29;3.80;;;3.13;;
16994;SDS011;8614;48.522;9.206;2023-09-19T15:21:00;5.23;;;3.67;;
16994;SDS011;8614;48.522;9.206;2023-09-19T15:23:27;6.10;;;4.50;;
16994;SDS011;8614;48.522;9.206;2023-09-19T15:25:54;3.50;;;3.20;;
16994;SDS011;8614;48.522;9.206;2023-09-19T15:28:21;4.50;;;2.80;;
16994;SDS011;8614;48.522;9.206;2023-09-19T15:30:48;7.97;;;7.43;;
16994;SDS011;8614;48.522;9.206;2023-09-19T15:33:15;7.20;;;6.60;;